sensor_id;sensor_type;location;lat;lon;timestamp;temperature;humidity
66312;HTU21D;53114;51.138;6.008;2022-08-19T00:00:37;18.53;118.99
66312;HTU21D;53114;51.138;6.008;2022-08-19T00:03:05;18.49;118.99
66312;HTU21D;53114;51.138;6.008;2022-08-19T00:05:32;18.46;118.99
66312;HTU21D;53114;51.138;6.008;2022-08-19T00:07:58;18.43;118.99
66312;HTU21D;53114;51.138;6.008;2022-08-19T00:10:24;18.43;118.99
66312;HTU21D;53114;51.138;6.008;2022-08-19T00:12:51;18.46;118.99
66312;HTU21D;53114;51.138;6.008;2022-08-19T00:15:20;18.48;118.99
66312;HTU21D;53114;51.138;6.008;2022-08-19T00:17:47;18.47;118.99
66312;HTU21D;53114;51.138;6.008;2022-08-19T00:20:17;18.43;118.99
66312;HTU21D;53114;51.138;6.008;2022-08-19T00:22:46;18.38;118.99
66312;HTU21D;53114;51.138;6.008;2022-08-19T00:25:14;18.32;118.99
66312;HTU21D;53114;51.138;6.008;2022-08-19T00:27:40;18.26;118.99
66312;HTU21D;53114;51.138;6.008;2022-08-19T00:30:07;18.18;118.99
66312;HTU21D;53114;51.138;6.008;2022-08-19T00:32:33;18.15;118.99
66312;HTU21D;53114;51.138;6.008;2022-08-19T00:35:00;18.10;118.99
66312;HTU21D;53114;51.138;6.008;2022-08-19T00:37:27;18.08;118.99
66312;HTU21D;53114;51.138;6.008;2022-08-19T00:39:53;18.06;118.99
66312;HTU21D;53114;51.138;6.008;2022-08-19T00:42:21;18.03;118.99
66312;HTU21D;53114;51.138;6.008;2022-08-19T00:44:47;18.00;118.99
66312;HTU21D;53114;51.138;6.008;2022-08-19T00:47:14;17.99;118.99
66312;HTU21D;53114;51.138;6.008;2022-08-19T00:49:45;18.02;118.99
66312;HTU21D;53114;51.138;6.008;2022-08-19T00:52:25;17.98;118.99
66312;HTU21D;53114;51.138;6.008;2022-08-19T00:54:56;17.94;118.99
66312;HTU21D;53114;51.138;6.008;2022-08-19T00:57:28;17.92;118.99
66312;HTU21D;53114;51.138;6.008;2022-08-19T00:59:56;17.85;118.99
66312;HTU21D;53114;51.138;6.008;2022-08-19T01:02:24;17.83;118.99
66312;HTU21D;53114;51.138;6.008;2022-08-19T01:04:50;17.84;118.99
66312;HTU21D;53114;51.138;6.008;2022-08-19T01:07:17;17.83;118.99
66312;HTU21D;53114;51.138;6.008;2022-08-19T01:09:43;17.83;118.99
66312;HTU21D;53114;51.138;6.008;2022-08-19T01:12:09;17.78;118.99
66312;HTU21D;53114;51.138;6.008;2022-08-19T01:14:39;17.75;118.99
66312;HTU21D;53114;51.138;6.008;2022-08-19T01:17:08;17.72;118.99
66312;HTU21D;53114;51.138;6.008;2022-08-19T01:19:38;17.69;118.99
66312;HTU21D;53114;51.138;6.008;2022-08-19T01:24:49;17.75;118.99
66312;HTU21D;53114;51.138;6.008;2022-08-19T01:27:16;17.69;118.99
66312;HTU21D;53114;51.138;6.008;2022-08-19T01:29:44;17.64;118.99
66312;HTU21D;53114;51.138;6.008;2022-08-19T01:32:13;17.61;118.99
66312;HTU21D;53114;51.138;6.008;2022-08-19T01:34:41;17.59;118.99
66312;HTU21D;53114;51.138;6.008;2022-08-19T01:37:09;17.59;118.99
66312;HTU21D;53114;51.138;6.008;2022-08-19T01:39:38;17.59;118.99
66312;HTU21D;53114;51.138;6.008;2022-08-19T01:42:06;17.54;118.99
66312;HTU21D;53114;51.138;6.008;2022-08-19T01:44:34;17.49;118.99
66312;HTU21D;53114;51.138;6.008;2022-08-19T01:47:01;17.45;118.99
66312;HTU21D;53114;51.138;6.008;2022-08-19T01:49:28;17.40;118.99
66312;HTU21D;53114;51.138;6.008;2022-08-19T01:51:54;17.38;118.99
66312;HTU21D;53114;51.138;6.008;2022-08-19T01:54:22;17.37;118.99
66312;HTU21D;53114;51.138;6.008;2022-08-19T01:56:53;17.38;118.99
66312;HTU21D;53114;51.138;6.008;2022-08-19T01:59:23;17.39;118.99
66312;HTU21D;53114;51.138;6.008;2022-08-19T02:01:49;17.40;118.99
66312;HTU21D;53114;51.138;6.008;2022-08-19T02:04:15;17.43;118.99
66312;HTU21D;53114;51.138;6.008;2022-08-19T02:06:41;17.43;118.99
66312;HTU21D;53114;51.138;6.008;2022-08-19T02:09:08;17.44;118.99
66312;HTU21D;53114;51.138;6.008;2022-08-19T02:11:36;17.46;118.99
66312;HTU21D;53114;51.138;6.008;2022-08-19T02:14:05;17.46;118.99
66312;HTU21D;53114;51.138;6.008;2022-08-19T02:16:32;17.49;118.99
66312;HTU21D;53114;51.138;6.008;2022-08-19T02:18:58;17.49;118.99
66312;HTU21D;53114;51.138;6.008;2022-08-19T02:21:29;17.46;118.99
66312;HTU21D;53114;51.138;6.008;2022-08-19T02:23:55;17.43;118.99
66312;HTU21D;53114;51.138;6.008;2022-08-19T02:26:22;17.43;118.99
66312;HTU21D;53114;51.138;6.008;2022-08-19T02:28:48;17.41;118.99
66312;HTU21D;53114;51.138;6.008;2022-08-19T02:31:17;17.40;118.99
66312;HTU21D;53114;51.138;6.008;2022-08-19T02:33:44;17.41;118.99
66312;HTU21D;53114;51.138;6.008;2022-08-19T02:36:13;17.38;118.99
66312;HTU21D;53114;51.138;6.008;2022-08-19T02:38:40;17.38;118.99
66312;HTU21D;53114;51.138;6.008;2022-08-19T02:41:15;17.36;118.99
66312;HTU21D;53114;51.138;6.008;2022-08-19T02:43:42;17.37;118.99
66312;HTU21D;53114;51.138;6.008;2022-08-19T02:46:25;17.40;118.99
66312;HTU21D;53114;51.138;6.008;2022-08-19T02:48:54;17.37;118.99
66312;HTU21D;53114;51.138;6.008;2022-08-19T02:51:27;17.37;118.99
66312;HTU21D;53114;51.138;6.008;2022-08-19T02:53:53;17.37;118.99
66312;HTU21D;53114;51.138;6.008;2022-08-19T02:56:20;17.37;118.99
66312;HTU21D;53114;51.138;6.008;2022-08-19T02:58:47;17.37;118.99
66312;HTU21D;53114;51.138;6.008;2022-08-19T03:01:31;17.37;118.99
66312;HTU21D;53114;51.138;6.008;2022-08-19T03:04:00;17.36;118.99
66312;HTU21D;53114;51.138;6.008;2022-08-19T03:06:27;17.36;118.99
66312;HTU21D;53114;51.138;6.008;2022-08-19T03:08:54;17.36;118.99
66312;HTU21D;53114;51.138;6.008;2022-08-19T03:11:29;17.32;118.99
66312;HTU21D;53114;51.138;6.008;2022-08-19T03:13:56;17.28;118.99
66312;HTU21D;53114;51.138;6.008;2022-08-19T03:16:25;17.29;118.99
66312;HTU21D;53114;51.138;6.008;2022-08-19T03:18:53;17.24;118.99
66312;HTU21D;53114;51.138;6.008;2022-08-19T03:21:25;17.19;118.99
66312;HTU21D;53114;51.138;6.008;2022-08-19T03:24:04;17.20;118.99
66312;HTU21D;53114;51.138;6.008;2022-08-19T03:26:30;17.20;118.99
66312;HTU21D;53114;51.138;6.008;2022-08-19T03:28:57;17.24;118.99
66312;HTU21D;53114;51.138;6.008;2022-08-19T03:31:24;17.25;118.99
66312;HTU21D;53114;51.138;6.008;2022-08-19T03:33:51;17.25;118.99
66312;HTU21D;53114;51.138;6.008;2022-08-19T03:36:20;17.28;118.99
66312;HTU21D;53114;51.138;6.008;2022-08-19T03:38:54;17.31;118.99
66312;HTU21D;53114;51.138;6.008;2022-08-19T03:41:26;17.34;118.99
66312;HTU21D;53114;51.138;6.008;2022-08-19T03:43:53;17.46;118.99
66312;HTU21D;53114;51.138;6.008;2022-08-19T03:46:26;17.58;118.99
66312;HTU21D;53114;51.138;6.008;2022-08-19T03:48:55;17.70;118.99
66312;HTU21D;53114;51.138;6.008;2022-08-19T03:51:28;17.79;118.99
66312;HTU21D;53114;51.138;6.008;2022-08-19T03:53:58;17.90;118.99
66312;HTU21D;53114;51.138;6.008;2022-08-19T03:56:24;17.96;118.99
66312;HTU21D;53114;51.138;6.008;2022-08-19T03:58:52;17.95;118.99
66312;HTU21D;53114;51.138;6.008;2022-08-19T04:01:21;17.89;118.99
66312;HTU21D;53114;51.138;6.008;2022-08-19T04:03:47;17.75;118.99
66312;HTU21D;53114;51.138;6.008;2022-08-19T04:06:23;17.60;118.99
66312;HTU21D;53114;51.138;6.008;2022-08-19T04:08:51;17.48;118.99
66312;HTU21D;53114;51.138;6.008;2022-08-19T04:11:23;17.37;118.99
66312;HTU21D;53114;51.138;6.008;2022-08-19T04:13:51;17.32;118.99
66312;HTU21D;53114;51.138;6.008;2022-08-19T04:16:18;17.26;118.99
66312;HTU21D;53114;51.138;6.008;2022-08-19T04:18:46;17.29;118.99
66312;HTU21D;53114;51.138;6.008;2022-08-19T04:21:22;17.32;118.99
66312;HTU21D;53114;51.138;6.008;2022-08-19T04:23:49;17.36;118.99
66312;HTU21D;53114;51.138;6.008;2022-08-19T04:26:18;17.39;118.99
66312;HTU21D;53114;51.138;6.008;2022-08-19T04:28:45;17.34;118.99
66312;HTU21D;53114;51.138;6.008;2022-08-19T04:31:23;17.30;118.99
66312;HTU21D;53114;51.138;6.008;2022-08-19T04:33:53;17.31;118.99
66312;HTU21D;53114;51.138;6.008;2022-08-19T04:36:28;17.33;118.99
66312;HTU21D;53114;51.138;6.008;2022-08-19T04:38:57;17.34;118.99
66312;HTU21D;53114;51.138;6.008;2022-08-19T04:41:24;17.39;118.99
66312;HTU21D;53114;51.138;6.008;2022-08-19T04:44:09;17.47;118.99
66312;HTU21D;53114;51.138;6.008;2022-08-19T04:46:36;17.52;118.99
66312;HTU21D;53114;51.138;6.008;2022-08-19T04:49:04;17.54;118.99
66312;HTU21D;53114;51.138;6.008;2022-08-19T04:51:31;17.54;118.99
66312;HTU21D;53114;51.138;6.008;2022-08-19T04:53:58;17.56;118.99
66312;HTU21D;53114;51.138;6.008;2022-08-19T04:56:27;17.66;118.99
66312;HTU21D;53114;51.138;6.008;2022-08-19T04:58:55;17.77;118.99
66312;HTU21D;53114;51.138;6.008;2022-08-19T05:01:27;17.90;118.99
66312;HTU21D;53114;51.138;6.008;2022-08-19T05:03:59;17.97;118.99
66312;HTU21D;53114;51.138;6.008;2022-08-19T05:06:26;17.99;118.99
66312;HTU21D;53114;51.138;6.008;2022-08-19T05:08:54;17.97;118.99
66312;HTU21D;53114;51.138;6.008;2022-08-19T05:11:29;17.95;118.99
66312;HTU21D;53114;51.138;6.008;2022-08-19T05:13:56;17.92;118.99
66312;HTU21D;53114;51.138;6.008;2022-08-19T05:16:24;17.89;118.99
66312;HTU21D;53114;51.138;6.008;2022-08-19T05:18:51;17.87;118.99
66312;HTU21D;53114;51.138;6.008;2022-08-19T05:21:36;17.84;118.99
66312;HTU21D;53114;51.138;6.008;2022-08-19T05:24:21;17.81;118.99
66312;HTU21D;53114;51.138;6.008;2022-08-19T05:26:50;17.87;118.99
66312;HTU21D;53114;51.138;6.008;2022-08-19T05:29:19;17.93;118.99
66312;HTU21D;53114;51.138;6.008;2022-08-19T05:31:47;18.00;118.99
66312;HTU21D;53114;51.138;6.008;2022-08-19T05:34:17;18.06;118.99
66312;HTU21D;53114;51.138;6.008;2022-08-19T05:36:45;18.08;118.99
66312;HTU21D;53114;51.138;6.008;2022-08-19T05:39:15;18.12;118.99
66312;HTU21D;53114;51.138;6.008;2022-08-19T05:41:48;18.19;118.99
66312;HTU21D;53114;51.138;6.008;2022-08-19T05:44:16;18.25;118.99
66312;HTU21D;53114;51.138;6.008;2022-08-19T05:46:44;18.35;118.99
66312;HTU21D;53114;51.138;6.008;2022-08-19T05:49:15;18.38;118.99
66312;HTU21D;53114;51.138;6.008;2022-08-19T05:51:41;18.37;118.99
66312;HTU21D;53114;51.138;6.008;2022-08-19T05:54:07;18.37;118.99
66312;HTU21D;53114;51.138;6.008;2022-08-19T05:56:36;18.42;118.99
66312;HTU21D;53114;51.138;6.008;2022-08-19T05:59:08;18.46;118.99
66312;HTU21D;53114;51.138;6.008;2022-08-19T06:01:38;18.44;118.99
66312;HTU21D;53114;51.138;6.008;2022-08-19T06:04:05;18.48;118.99
66312;HTU21D;53114;51.138;6.008;2022-08-19T06:06:33;18.57;118.99
66312;HTU21D;53114;51.138;6.008;2022-08-19T06:09:04;18.68;118.99
66312;HTU21D;53114;51.138;6.008;2022-08-19T06:11:46;18.80;118.99
66312;HTU21D;53114;51.138;6.008;2022-08-19T06:14:19;18.89;118.99
66312;HTU21D;53114;51.138;6.008;2022-08-19T06:16:46;18.99;118.99
66312;HTU21D;53114;51.138;6.008;2022-08-19T06:19:15;19.06;118.99
66312;HTU21D;53114;51.138;6.008;2022-08-19T06:21:44;19.15;118.99
66312;HTU21D;53114;51.138;6.008;2022-08-19T06:24:13;19.26;118.99
66312;HTU21D;53114;51.138;6.008;2022-08-19T06:26:42;19.38;118.99
66312;HTU21D;53114;51.138;6.008;2022-08-19T06:29:11;19.43;118.99
66312;HTU21D;53114;51.138;6.008;2022-08-19T06:31:42;19.55;118.99
66312;HTU21D;53114;51.138;6.008;2022-08-19T06:34:10;19.67;118.99
66312;HTU21D;53114;51.138;6.008;2022-08-19T06:36:39;19.80;118.99
66312;HTU21D;53114;51.138;6.008;2022-08-19T06:39:12;19.99;118.99
66312;HTU21D;53114;51.138;6.008;2022-08-19T06:41:42;20.25;118.99
66312;HTU21D;53114;51.138;6.008;2022-08-19T06:44:19;20.47;118.99
66312;HTU21D;53114;51.138;6.008;2022-08-19T06:46:46;20.62;118.99
66312;HTU21D;53114;51.138;6.008;2022-08-19T06:49:12;20.81;118.99
66312;HTU21D;53114;51.138;6.008;2022-08-19T06:51:41;20.92;118.99
66312;HTU21D;53114;51.138;6.008;2022-08-19T06:54:08;20.96;118.99
66312;HTU21D;53114;51.138;6.008;2022-08-19T06:56:34;20.98;118.99
66312;HTU21D;53114;51.138;6.008;2022-08-19T06:59:07;21.00;118.99
66312;HTU21D;53114;51.138;6.008;2022-08-19T07:01:39;21.05;118.99
66312;HTU21D;53114;51.138;6.008;2022-08-19T07:04:08;21.13;118.99
66312;HTU21D;53114;51.138;6.008;2022-08-19T07:06:35;21.20;118.99
66312;HTU21D;53114;51.138;6.008;2022-08-19T07:09:06;21.29;118.99
66312;HTU21D;53114;51.138;6.008;2022-08-19T07:11:32;21.37;118.99
66312;HTU21D;53114;51.138;6.008;2022-08-19T07:13:59;21.46;118.99
66312;HTU21D;53114;51.138;6.008;2022-08-19T07:16:26;21.50;118.99
66312;HTU21D;53114;51.138;6.008;2022-08-19T07:18:54;21.52;118.99
66312;HTU21D;53114;51.138;6.008;2022-08-19T07:21:24;21.55;118.99
66312;HTU21D;53114;51.138;6.008;2022-08-19T07:23:54;21.73;118.99
66312;HTU21D;53114;51.138;6.008;2022-08-19T07:26:26;21.84;118.99
66312;HTU21D;53114;51.138;6.008;2022-08-19T07:28:53;21.94;118.99
66312;HTU21D;53114;51.138;6.008;2022-08-19T07:31:22;21.99;118.22
66312;HTU21D;53114;51.138;6.008;2022-08-19T07:33:51;22.01;117.92
66312;HTU21D;53114;51.138;6.008;2022-08-19T07:36:21;21.99;117.44
66312;HTU21D;53114;51.138;6.008;2022-08-19T07:38:49;21.99;117.28
66312;HTU21D;53114;51.138;6.008;2022-08-19T07:41:19;21.90;116.96
66312;HTU21D;53114;51.138;6.008;2022-08-19T07:43:47;21.83;117.41
66312;HTU21D;53114;51.138;6.008;2022-08-19T07:46:13;21.82;117.36
66312;HTU21D;53114;51.138;6.008;2022-08-19T07:48:42;21.94;117.66
66312;HTU21D;53114;51.138;6.008;2022-08-19T07:51:13;22.11;117.19
66312;HTU21D;53114;51.138;6.008;2022-08-19T07:53:39;22.26;116.37
66312;HTU21D;53114;51.138;6.008;2022-08-19T07:56:05;22.35;115.68
66312;HTU21D;53114;51.138;6.008;2022-08-19T07:58:34;22.37;115.60
66312;HTU21D;53114;51.138;6.008;2022-08-19T08:01:02;22.38;115.09
66312;HTU21D;53114;51.138;6.008;2022-08-19T08:03:30;22.36;114.84
66312;HTU21D;53114;51.138;6.008;2022-08-19T08:06:15;22.33;114.06
66312;HTU21D;53114;51.138;6.008;2022-08-19T08:09:01;22.34;113.93
66312;HTU21D;53114;51.138;6.008;2022-08-19T08:12:04;22.51;113.61
66312;HTU21D;53114;51.138;6.008;2022-08-19T08:14:39;22.90;112.29
66312;HTU21D;53114;51.138;6.008;2022-08-19T08:17:06;23.36;109.75
66312;HTU21D;53114;51.138;6.008;2022-08-19T08:19:32;23.89;105.63
66312;HTU21D;53114;51.138;6.008;2022-08-19T08:22:00;24.27;102.64
66312;HTU21D;53114;51.138;6.008;2022-08-19T08:24:29;24.77;100.04
66312;HTU21D;53114;51.138;6.008;2022-08-19T08:26:58;25.23;97.16
66312;HTU21D;53114;51.138;6.008;2022-08-19T08:29:29;26.17;94.71
66312;HTU21D;53114;51.138;6.008;2022-08-19T08:31:57;27.42;84.87
66312;HTU21D;53114;51.138;6.008;2022-08-19T08:34:23;28.37;76.86
66312;HTU21D;53114;51.138;6.008;2022-08-19T08:36:49;29.14;72.07
66312;HTU21D;53114;51.138;6.008;2022-08-19T08:39:22;29.91;68.78
66312;HTU21D;53114;51.138;6.008;2022-08-19T08:42:09;30.86;61.77
66312;HTU21D;53114;51.138;6.008;2022-08-19T08:44:52;31.49;59.28
66312;HTU21D;53114;51.138;6.008;2022-08-19T08:47:22;32.20;56.52
66312;HTU21D;53114;51.138;6.008;2022-08-19T08:49:57;32.84;53.94
66312;HTU21D;53114;51.138;6.008;2022-08-19T08:52:31;33.38;51.93
66312;HTU21D;53114;51.138;6.008;2022-08-19T08:55:11;33.91;48.28
66312;HTU21D;53114;51.138;6.008;2022-08-19T09:00:32;34.79;45.16
66312;HTU21D;53114;51.138;6.008;2022-08-19T09:03:00;35.10;42.84
66312;HTU21D;53114;51.138;6.008;2022-08-19T09:08:43;35.60;40.64
66312;HTU21D;53114;51.138;6.008;2022-08-19T09:16:36;33.91;37.43
66312;HTU21D;53114;51.138;6.008;2022-08-19T09:19:07;33.41;37.65
66312;HTU21D;53114;51.138;6.008;2022-08-19T09:21:34;33.12;38.72
66312;HTU21D;53114;51.138;6.008;2022-08-19T09:24:01;32.68;39.48
66312;HTU21D;53114;51.138;6.008;2022-08-19T09:26:27;32.32;39.97
66312;HTU21D;53114;51.138;6.008;2022-08-19T09:28:53;32.28;39.99
66312;HTU21D;53114;51.138;6.008;2022-08-19T09:31:24;32.48;38.94
66312;HTU21D;53114;51.138;6.008;2022-08-19T09:33:51;32.27;38.56
66312;HTU21D;53114;51.138;6.008;2022-08-19T09:36:20;31.42;40.30
66312;HTU21D;53114;51.138;6.008;2022-08-19T09:38:48;31.30;42.10
66312;HTU21D;53114;51.138;6.008;2022-08-19T09:41:17;31.87;40.00
66312;HTU21D;53114;51.138;6.008;2022-08-19T09:43:49;32.53;37.95
66312;HTU21D;53114;51.138;6.008;2022-08-19T09:46:19;32.94;36.85
66312;HTU21D;53114;51.138;6.008;2022-08-19T09:48:47;33.26;36.24
66312;HTU21D;53114;51.138;6.008;2022-08-19T09:51:18;33.04;36.31
66312;HTU21D;53114;51.138;6.008;2022-08-19T09:53:47;32.46;37.59
66312;HTU21D;53114;51.138;6.008;2022-08-19T09:56:17;32.72;37.23
66312;HTU21D;53114;51.138;6.008;2022-08-19T09:58:43;33.32;36.50
66312;HTU21D;53114;51.138;6.008;2022-08-19T10:01:19;33.37;36.06
66312;HTU21D;53114;51.138;6.008;2022-08-19T10:03:49;33.19;36.88
66312;HTU21D;53114;51.138;6.008;2022-08-19T10:06:17;33.27;37.14
66312;HTU21D;53114;51.138;6.008;2022-08-19T10:08:44;32.93;36.38
66312;HTU21D;53114;51.138;6.008;2022-08-19T10:11:11;31.95;38.11
66312;HTU21D;53114;51.138;6.008;2022-08-19T10:13:37;31.46;40.07
66312;HTU21D;53114;51.138;6.008;2022-08-19T10:16:10;31.30;40.13
66312;HTU21D;53114;51.138;6.008;2022-08-19T10:18:37;31.11;40.68
66312;HTU21D;53114;51.138;6.008;2022-08-19T10:21:06;31.02;41.26
66312;HTU21D;53114;51.138;6.008;2022-08-19T10:23:38;30.97;41.43
66312;HTU21D;53114;51.138;6.008;2022-08-19T10:26:06;30.92;42.41
66312;HTU21D;53114;51.138;6.008;2022-08-19T10:28:36;30.85;42.31
66312;HTU21D;53114;51.138;6.008;2022-08-19T10:31:15;30.70;42.24
66312;HTU21D;53114;51.138;6.008;2022-08-19T10:33:42;30.74;42.62
66312;HTU21D;53114;51.138;6.008;2022-08-19T10:36:13;31.40;41.08
66312;HTU21D;53114;51.138;6.008;2022-08-19T10:38:45;32.15;38.81
66312;HTU21D;53114;51.138;6.008;2022-08-19T10:41:22;32.94;36.80
66312;HTU21D;53114;51.138;6.008;2022-08-19T10:43:53;33.22;35.15
66312;HTU21D;53114;51.138;6.008;2022-08-19T10:46:22;33.08;34.85
66312;HTU21D;53114;51.138;6.008;2022-08-19T10:48:49;32.54;35.90
66312;HTU21D;53114;51.138;6.008;2022-08-19T10:51:16;32.40;36.71
66312;HTU21D;53114;51.138;6.008;2022-08-19T10:54:01;32.40;36.71
66312;HTU21D;53114;51.138;6.008;2022-08-19T10:56:29;32.40;37.64
66312;HTU21D;53114;51.138;6.008;2022-08-19T10:59:15;33.30;35.99
66312;HTU21D;53114;51.138;6.008;2022-08-19T11:01:44;34.12;33.61
66312;HTU21D;53114;51.138;6.008;2022-08-19T11:04:11;34.66;31.57
66312;HTU21D;53114;51.138;6.008;2022-08-19T11:06:40;34.57;31.05
66312;HTU21D;53114;51.138;6.008;2022-08-19T11:09:07;34.17;31.77
66312;HTU21D;53114;51.138;6.008;2022-08-19T11:11:34;34.03;32.30
66312;HTU21D;53114;51.138;6.008;2022-08-19T11:14:05;34.49;31.38
66312;HTU21D;53114;51.138;6.008;2022-08-19T11:16:31;34.91;30.65
66312;HTU21D;53114;51.138;6.008;2022-08-19T11:18:59;35.33;29.92
66312;HTU21D;53114;51.138;6.008;2022-08-19T11:21:32;35.48;28.93
66312;HTU21D;53114;51.138;6.008;2022-08-19T11:24:01;35.31;28.71
66312;HTU21D;53114;51.138;6.008;2022-08-19T11:26:30;35.31;28.18
66312;HTU21D;53114;51.138;6.008;2022-08-19T11:28:57;35.00;28.25
66312;HTU21D;53114;51.138;6.008;2022-08-19T11:31:26;34.52;28.58
66312;HTU21D;53114;51.138;6.008;2022-08-19T11:33:53;34.16;28.97
66312;HTU21D;53114;51.138;6.008;2022-08-19T11:36:20;34.14;28.76
66312;HTU21D;53114;51.138;6.008;2022-08-19T11:38:48;34.12;28.91
66312;HTU21D;53114;51.138;6.008;2022-08-19T11:41:17;33.58;30.53
66312;HTU21D;53114;51.138;6.008;2022-08-19T11:43:43;33.07;31.67
66312;HTU21D;53114;51.138;6.008;2022-08-19T11:46:11;32.66;32.16
66312;HTU21D;53114;51.138;6.008;2022-08-19T11:48:39;32.00;33.00
66312;HTU21D;53114;51.138;6.008;2022-08-19T11:51:11;31.16;34.35
66312;HTU21D;53114;51.138;6.008;2022-08-19T11:53:37;30.61;35.98
66312;HTU21D;53114;51.138;6.008;2022-08-19T11:56:05;30.26;36.64
66312;HTU21D;53114;51.138;6.008;2022-08-19T11:58:32;29.98;36.89
66312;HTU21D;53114;51.138;6.008;2022-08-19T12:00:58;29.88;36.95
66312;HTU21D;53114;51.138;6.008;2022-08-19T12:03:24;29.91;37.25
66312;HTU21D;53114;51.138;6.008;2022-08-19T12:05:50;30.13;37.37
66312;HTU21D;53114;51.138;6.008;2022-08-19T12:08:17;30.30;37.45
66312;HTU21D;53114;51.138;6.008;2022-08-19T12:10:44;30.30;37.22
66312;HTU21D;53114;51.138;6.008;2022-08-19T12:13:12;30.20;37.25
66312;HTU21D;53114;51.138;6.008;2022-08-19T12:15:46;30.18;37.20
66312;HTU21D;53114;51.138;6.008;2022-08-19T12:18:12;30.18;37.11
66312;HTU21D;53114;51.138;6.008;2022-08-19T12:20:42;30.15;37.03
66312;HTU21D;53114;51.138;6.008;2022-08-19T12:23:10;30.07;37.01
66312;HTU21D;53114;51.138;6.008;2022-08-19T12:25:37;30.01;37.40
66312;HTU21D;53114;51.138;6.008;2022-08-19T12:28:09;29.96;37.40
66312;HTU21D;53114;51.138;6.008;2022-08-19T12:30:37;29.92;36.99
66312;HTU21D;53114;51.138;6.008;2022-08-19T12:33:03;29.80;37.19
66312;HTU21D;53114;51.138;6.008;2022-08-19T12:35:29;29.64;37.84
66312;HTU21D;53114;51.138;6.008;2022-08-19T12:37:56;29.46;38.06
66312;HTU21D;53114;51.138;6.008;2022-08-19T12:40:21;29.21;38.47
66312;HTU21D;53114;51.138;6.008;2022-08-19T12:42:47;29.03;38.46
66312;HTU21D;53114;51.138;6.008;2022-08-19T12:45:15;28.91;38.94
66312;HTU21D;53114;51.138;6.008;2022-08-19T12:47:41;28.80;39.58
66312;HTU21D;53114;51.138;6.008;2022-08-19T12:50:07;28.61;40.48
66312;HTU21D;53114;51.138;6.008;2022-08-19T12:52:37;28.48;41.26
66312;HTU21D;53114;51.138;6.008;2022-08-19T12:55:06;28.52;41.65
66312;HTU21D;53114;51.138;6.008;2022-08-19T12:57:32;28.60;41.87
66312;HTU21D;53114;51.138;6.008;2022-08-19T13:02:32;28.53;42.16
66312;HTU21D;53114;51.138;6.008;2022-08-19T13:04:58;28.57;42.54
66312;HTU21D;53114;51.138;6.008;2022-08-19T13:07:24;28.63;42.35
66312;HTU21D;53114;51.138;6.008;2022-08-19T13:09:51;28.54;42.86
66312;HTU21D;53114;51.138;6.008;2022-08-19T13:12:17;28.55;43.85
66312;HTU21D;53114;51.138;6.008;2022-08-19T13:14:45;28.77;44.24
66312;HTU21D;53114;51.138;6.008;2022-08-19T13:17:15;28.88;43.88
66312;HTU21D;53114;51.138;6.008;2022-08-19T13:19:41;28.67;44.09
66312;HTU21D;53114;51.138;6.008;2022-08-19T13:22:07;28.42;44.72
66312;HTU21D;53114;51.138;6.008;2022-08-19T13:24:33;28.26;44.93
66312;HTU21D;53114;51.138;6.008;2022-08-19T13:27:00;28.09;45.10
66312;HTU21D;53114;51.138;6.008;2022-08-19T13:29:26;27.95;46.14
66312;HTU21D;53114;51.138;6.008;2022-08-19T13:32:10;27.84;47.05
66312;HTU21D;53114;51.138;6.008;2022-08-19T13:34:55;27.74;48.13
66312;HTU21D;53114;51.138;6.008;2022-08-19T13:37:21;27.68;48.81
66312;HTU21D;53114;51.138;6.008;2022-08-19T13:42:37;27.60;49.69
66312;HTU21D;53114;51.138;6.008;2022-08-19T13:45:03;27.76;49.56
66312;HTU21D;53114;51.138;6.008;2022-08-19T13:47:32;27.98;48.82
66312;HTU21D;53114;51.138;6.008;2022-08-19T13:50:02;28.19;48.00
66312;HTU21D;53114;51.138;6.008;2022-08-19T13:52:28;28.38;47.69
66312;HTU21D;53114;51.138;6.008;2022-08-19T13:54:54;28.38;46.92
66312;HTU21D;53114;51.138;6.008;2022-08-19T13:57:20;28.31;47.20
66312;HTU21D;53114;51.138;6.008;2022-08-19T13:59:46;28.24;47.79
66312;HTU21D;53114;51.138;6.008;2022-08-19T14:02:12;28.20;48.41
66312;HTU21D;53114;51.138;6.008;2022-08-19T14:04:38;28.20;48.72
66312;HTU21D;53114;51.138;6.008;2022-08-19T14:07:04;28.23;49.38
66312;HTU21D;53114;51.138;6.008;2022-08-19T14:09:30;28.24;49.79
66312;HTU21D;53114;51.138;6.008;2022-08-19T14:11:56;28.15;49.66
66312;HTU21D;53114;51.138;6.008;2022-08-19T14:14:23;27.95;50.22
66312;HTU21D;53114;51.138;6.008;2022-08-19T14:16:49;27.74;51.34
66312;HTU21D;53114;51.138;6.008;2022-08-19T14:19:15;27.60;52.07
66312;HTU21D;53114;51.138;6.008;2022-08-19T14:21:41;27.58;52.67
66312;HTU21D;53114;51.138;6.008;2022-08-19T14:24:08;27.69;52.99
66312;HTU21D;53114;51.138;6.008;2022-08-19T14:26:34;27.72;52.88
66312;HTU21D;53114;51.138;6.008;2022-08-19T14:29:00;27.75;52.72
66312;HTU21D;53114;51.138;6.008;2022-08-19T14:31:27;27.89;53.49
66312;HTU21D;53114;51.138;6.008;2022-08-19T14:33:53;28.04;53.34
66312;HTU21D;53114;51.138;6.008;2022-08-19T14:36:19;28.04;52.73
66312;HTU21D;53114;51.138;6.008;2022-08-19T14:38:46;28.01;53.07
66312;HTU21D;53114;51.138;6.008;2022-08-19T14:41:20;28.04;53.06
66312;HTU21D;53114;51.138;6.008;2022-08-19T14:43:50;28.04;53.48
66312;HTU21D;53114;51.138;6.008;2022-08-19T14:46:22;28.13;54.07
66312;HTU21D;53114;51.138;6.008;2022-08-19T14:48:49;28.21;53.70
66312;HTU21D;53114;51.138;6.008;2022-08-19T14:51:15;28.23;53.58
66312;HTU21D;53114;51.138;6.008;2022-08-19T14:53:42;28.28;53.80
66312;HTU21D;53114;51.138;6.008;2022-08-19T14:56:11;28.35;53.55
66312;HTU21D;53114;51.138;6.008;2022-08-19T14:58:39;28.37;52.40
66312;HTU21D;53114;51.138;6.008;2022-08-19T15:01:07;28.34;52.24
66312;HTU21D;53114;51.138;6.008;2022-08-19T15:03:33;28.37;51.67
66312;HTU21D;53114;51.138;6.008;2022-08-19T15:06:00;28.31;51.72
66312;HTU21D;53114;51.138;6.008;2022-08-19T15:08:28;28.19;52.62
66312;HTU21D;53114;51.138;6.008;2022-08-19T15:10:55;28.14;53.39
66312;HTU21D;53114;51.138;6.008;2022-08-19T15:13:22;28.08;53.75
66312;HTU21D;53114;51.138;6.008;2022-08-19T15:15:50;28.00;54.44
66312;HTU21D;53114;51.138;6.008;2022-08-19T15:18:18;28.00;54.97
66312;HTU21D;53114;51.138;6.008;2022-08-19T15:20:46;28.05;54.75
66312;HTU21D;53114;51.138;6.008;2022-08-19T15:23:17;28.05;54.06
66312;HTU21D;53114;51.138;6.008;2022-08-19T15:25:44;27.99;54.01
66312;HTU21D;53114;51.138;6.008;2022-08-19T15:28:10;27.90;54.37
66312;HTU21D;53114;51.138;6.008;2022-08-19T15:30:38;27.86;55.23
66312;HTU21D;53114;51.138;6.008;2022-08-19T15:33:05;27.98;55.47
66312;HTU21D;53114;51.138;6.008;2022-08-19T15:35:32;28.05;55.20
66312;HTU21D;53114;51.138;6.008;2022-08-19T15:37:58;28.12;54.38